Time;durP1;ratioP1;P1;durP2;ratioP2;P2;SDS_P1;SDS_P2;PMS_P1;PMS_P2;Temp;Humidity;BMP_temperature;BMP_pressure;BME280_temperature;BME280_humidity;BME280_pressure;Samples;Min_cycle;Max_cycle;Signal;HPM_P1;HPM_P2
2022/10/11 00:01:44;;;;;;;;;;;;;;;;;;5081345;28;1270;-65
2022/10/11 00:04:09;;;;;;;;;;;;;;;;;;5081939;28;828;-65
2022/10/11 00:06:36;;;;;;;;;;;;;;;;;;5080795;28;1971;-65
2022/10/11 00:09:02;;;;;;;;;;;;;;;;;;5081447;28;842;-65
2022/10/11 00:11:27;;;;;;;;;;;;;;;;;;5081344;28;1211;-65
2022/10/11 00:13:52;;;;;;;;;;;;;;;;;;5081412;28;937;-64
2022/10/11 00:16:17;;;;;;;;;;;;;;;;;;5081016;28;767;-64
2022/10/11 00:18:42;;;;;;;;;;;;;;;;;;5081423;28;921;-65
2022/10/11 00:21:10;;;;;;;;;;;;;;;;;;5081208;28;1191;-65
2022/10/11 00:23:36;;;;;;;;;;;;;;;;;;5081310;28;826;-64
2022/10/11 00:26:02;;;;;;;;;;;;;;;;;;5062783;28;1793;-65
2022/10/11 00:28:28;;;;;;;;;;;;;;;;;;5080966;28;1953;-64
2022/10/11 00:30:53;;;;;;;;;;;;;;;;;;5080885;28;1171;-65
2022/10/11 00:33:18;;;;;;;;;;;;;;;;;;5081135;28;1160;-64
2022/10/11 00:35:44;;;;;;;;;;;;;;;;;;5080617;28;970;-64
2022/10/11 00:38:09;;;;;;;;;;;;;;;;;;5081328;28;865;-65
2022/10/11 00:40:34;;;;;;;;;;;;;;;;;;5080867;28;894;-64
2022/10/11 00:43:00;;;;;;;;;;;;;;;;;;5080989;28;1259;-65
2022/10/11 00:45:25;;;;;;;;;;;;;;;;;;5062423;28;1422;-64
2022/10/11 00:47:51;;;;;;;;;;;;;;;;;;5080984;28;1955;-65
2022/10/11 00:50:18;;;;;;;;;;;;;;;;;;5084623;28;795;-64
2022/10/11 00:52:46;;;;;;;;;;;;;;;;;;5097138;22;3692;-69
2022/10/11 00:55:13;;;;;;;;;;;;;;;;;;5084027;28;774;-69
2022/10/11 00:57:39;;;;;;;;;;;;;;;;;;5084298;28;878;-69
2022/10/11 01:00:06;;;;;;;;;;;;;;;;;;5084161;28;862;-69
2022/10/11 01:02:31;;;;;;;;;;;;;;;;;;5084063;28;1290;-69
2022/10/11 01:04:56;;;;;;;;;;;;;;;;;;5084152;28;1060;-69
2022/10/11 01:07:21;;;;;;;;;;;;;;;;;;5084057;28;1983;-69
2022/10/11 01:09:46;;;;;;;;;;;;;;;;;;5084287;28;819;-69
2022/10/11 01:12:17;;;;;;;;;;;;;;;;;;5084165;28;1265;-69
2022/10/11 01:14:50;;;;;;;;;;;;;;;;;;5083995;28;790;-69
2022/10/11 01:17:34;;;;;;;;;;;;;;;;;;5084148;28;985;-69
2022/10/11 01:20:18;;;;;;;;;;;;;;;;;;5084142;28;953;-70
2022/10/11 01:22:49;;;;;;;;;;;;;;;;;;5083759;28;1155;-70
2022/10/11 01:25:14;;;;;;;;;;;;;;;;;;5083730;28;1074;-69
2022/10/11 01:27:45;;;;;;;;;;;;;;;;;;5083621;28;1894;-69
2022/10/11 01:30:23;;;;;;;;;;;;;;;;;;5084288;28;763;-69
2022/10/11 01:32:49;;;;;;;;;;;;;;;;;;5083622;28;2074;-69
2022/10/11 01:35:23;;;;;;;;;;;;;;;;;;5083445;28;779;-69
2022/10/11 01:37:54;;;;;;;;;;;;;;;;;;5083487;28;964;-69
2022/10/11 01:40:42;;;;;;;;;;;;;;;;;;5083662;28;1274;-69
2022/10/11 01:43:08;;;;;;;;;;;;;;;;;;5069911;28;1136;-69
2022/10/11 01:45:34;;;;;;;;;;;;;;;;;;5083409;28;799;-69
2022/10/11 01:48:04;;;;;;;;;;;;;;;;;;5083298;28;1952;-69
2022/10/11 01:50:33;;;;;;;;;;;;;;;;;;5083613;28;771;-70
2022/10/11 01:53:03;;;;;;;;;;;;;;;;;;5083331;28;1230;-69
2022/10/11 01:55:35;;;;;;;;;;;;;;;;;;5083289;28;918;-69
2022/10/11 01:58:04;;;;;;;;;;;;;;;;;;5081610;28;999;-69
2022/10/11 02:00:41;;;;;;;;;;;;;;;;;;5082588;28;858;-69
2022/10/11 02:03:16;;;;;;;;;;;;;;;;;;5083371;28;1140;-69
2022/10/11 02:05:50;;;;;;;;;;;;;;;;;;5082863;28;937;-69
2022/10/11 02:08:30;;;;;;;;;;;;;;;;;;5083172;28;1902;-69
2022/10/11 02:11:00;;;;;;;;;;;;;;;;;;5083107;28;910;-69
2022/10/11 02:13:43;;;;;;;;;;;;;;;;;;5083077;28;1128;-69
2022/10/11 02:16:11;;;;;;;;;;;;;;;;;;5082928;28;895;-69
2022/10/11 02:18:40;;;;;;;;;;;;;;;;;;5083117;28;822;-69
2022/10/11 02:21:07;;;;;;;;;;;;;;;;;;5082748;28;834;-69
2022/10/11 02:23:35;;;;;;;;;;;;;;;;;;5083048;28;1222;-69
2022/10/11 02:26:02;;;;;;;;;;;;;;;;;;5082628;28;818;-69
2022/10/11 02:28:30;;;;;;;;;;;;;;;;;;5064726;28;1897;-69
2022/10/11 02:30:56;;;;;;;;;;;;;;;;;;5082993;28;866;-70
2022/10/11 02:33:25;;;;;;;;;;;;;;;;;;5082870;28;1231;-69
2022/10/11 02:35:53;;;;;;;;;;;;;;;;;;5082412;28;819;-70
2022/10/11 02:38:28;;;;;;;;;;;;;;;;;;5082894;28;799;-69
2022/10/11 02:40:59;;;;;;;;;;;;;;;;;;5082610;28;890;-69
2022/10/11 02:43:30;;;;;;;;;;;;;;;;;;5082988;28;1136;-69
2022/10/11 02:45:59;;;;;;;;;;;;;;;;;;5082370;28;953;-69
2022/10/11 02:48:27;;;;;;;;;;;;;;;;;;5082533;28;1969;-69
2022/10/11 02:50:52;;;;;;;;;;;;;;;;;;5082575;28;853;-69
2022/10/11 02:53:18;;;;;;;;;;;;;;;;;;5082716;28;1215;-69
2022/10/11 02:55:43;;;;;;;;;;;;;;;;;;5082245;28;850;-69
2022/10/11 02:58:08;;;;;;;;;;;;;;;;;;5082553;28;968;-69
2022/10/11 03:00:33;;;;;;;;;;;;;;;;;;5082425;28;728;-69
2022/10/11 03:02:58;;;;;;;;;;;;;;;;;;5064384;28;1234;-70
2022/10/11 03:05:24;;;;;;;;;;;;;;;;;;5082072;28;862;-70
2022/10/11 03:07:49;;;;;;;;;;;;;;;;;;5082206;28;1893;-69
2022/10/11 03:10:14;;;;;;;;;;;;;;;;;;5082086;28;890;-69
2022/10/11 03:12:39;;;;;;;;;;;;;;;;;;5081596;28;1171;-70
2022/10/11 03:15:04;;;;;;;;;;;;;;;;;;5081739;28;784;-69
2022/10/11 03:17:30;;;;;;;;;;;;;;;;;;5082078;28;985;-70
2022/10/11 03:19:55;;;;;;;;;;;;;;;;;;5082256;28;893;-70
2022/10/11 03:22:21;;;;;;;;;;;;;;;;;;5064224;28;1801;-69
2022/10/11 03:24:46;;;;;;;;;;;;;;;;;;5081706;28;838;-70
2022/10/11 03:27:11;;;;;;;;;;;;;;;;;;5081743;28;1953;-69
2022/10/11 03:29:36;;;;;;;;;;;;;;;;;;5082134;28;989;-69
2022/10/11 03:32:02;;;;;;;;;;;;;;;;;;5081652;28;1190;-70
2022/10/11 03:34:27;;;;;;;;;;;;;;;;;;5082003;28;890;-69
2022/10/11 03:36:52;;;;;;;;;;;;;;;;;;5081592;28;937;-69
2022/10/11 03:39:17;;;;;;;;;;;;;;;;;;5081841;28;811;-70
2022/10/11 03:41:42;;;;;;;;;;;;;;;;;;5081655;28;1151;-70
2022/10/11 03:44:08;;;;;;;;;;;;;;;;;;5081847;28;981;-70
2022/10/11 03:46:33;;;;;;;;;;;;;;;;;;5081308;28;1893;-69
2022/10/11 03:48:58;;;;;;;;;;;;;;;;;;5081696;28;882;-70
2022/10/11 03:51:23;;;;;;;;;;;;;;;;;;5081519;28;1236;-69
2022/10/11 03:53:48;;;;;;;;;;;;;;;;;;5081722;28;953;-69
2022/10/11 03:56:14;;;;;;;;;;;;;;;;;;5081252;28;874;-69
2022/10/11 03:58:40;;;;;;;;;;;;;;;;;;5081708;28;1075;-70
2022/10/11 04:01:05;;;;;;;;;;;;;;;;;;5081629;28;819;-69
2022/10/11 04:03:30;;;;;;;;;;;;;;;;;;5081507;28;1156;-70
2022/10/11 04:05:55;;;;;;;;;;;;;;;;;;5081198;28;882;-69
2022/10/11 04:08:21;;;;;;;;;;;;;;;;;;5081267;28;1961;-69
2022/10/11 04:10:47;;;;;;;;;;;;;;;;;;5081566;28;913;-69
2022/10/11 04:13:12;;;;;;;;;;;;;;;;;;5063220;28;1433;-69
2022/10/11 04:15:37;;;;;;;;;;;;;;;;;;5081069;28;925;-69
2022/10/11 04:18:03;;;;;;;;;;;;;;;;;;5081104;28;902;-70
2022/10/11 04:20:28;;;;;;;;;;;;;;;;;;5063299;28;1412;-70
2022/10/11 04:22:53;;;;;;;;;;;;;;;;;;5081039;28;1227;-70
2022/10/11 04:25:19;;;;;;;;;;;;;;;;;;5080879;28;968;-70
2022/10/11 04:27:44;;;;;;;;;;;;;;;;;;5080958;28;1902;-70
2022/10/11 04:30:10;;;;;;;;;;;;;;;;;;5081235;28;877;-69
2022/10/11 04:32:35;;;;;;;;;;;;;;;;;;5080833;28;1254;-70
2022/10/11 04:35:00;;;;;;;;;;;;;;;;;;5080769;28;951;-70
2022/10/11 04:37:25;;;;;;;;;;;;;;;;;;5080912;28;881;-70
2022/10/11 04:39:50;;;;;;;;;;;;;;;;;;5081016;28;1023;-70
2022/10/11 04:42:15;;;;;;;;;;;;;;;;;;5080905;28;1141;-70
2022/10/11 04:44:41;;;;;;;;;;;;;;;;;;5080692;28;957;-70
2022/10/11 04:47:06;;;;;;;;;;;;;;;;;;5080645;28;1966;-70
2022/10/11 04:49:32;;;;;;;;;;;;;;;;;;5081323;28;1021;-70
2022/10/11 04:51:57;;;;;;;;;;;;;;;;;;5080689;28;1231;-69
2022/10/11 04:54:22;;;;;;;;;;;;;;;;;;5080791;28;977;-69
2022/10/11 04:56:48;;;;;;;;;;;;;;;;;;5080672;28;886;-70
2022/10/11 04:59:13;;;;;;;;;;;;;;;;;;5080580;28;843;-69
2022/10/11 05:01:38;;;;;;;;;;;;;;;;;;5080653;28;1167;-69
2022/10/11 05:04:03;;;;;;;;;;;;;;;;;;5080690;28;811;-70
2022/10/11 05:06:28;;;;;;;;;;;;;;;;;;5080559;28;997;-70
2022/10/11 05:08:54;;;;;;;;;;;;;;;;;;5080350;28;1985;-70
2022/10/11 05:11:19;;;;;;;;;;;;;;;;;;5080779;28;833;-70
2022/10/11 05:13:44;;;;;;;;;;;;;;;;;;5080460;28;1195;-70
2022/10/11 05:16:10;;;;;;;;;;;;;;;;;;5080324;28;799;-70
2022/10/11 05:18:35;;;;;;;;;;;;;;;;;;5080655;28;994;-70
2022/10/11 05:21:02;;;;;;;;;;;;;;;;;;5080724;28;818;-70
2022/10/11 05:23:28;;;;;;;;;;;;;;;;;;5080233;28;1250;-70
2022/10/11 05:25:53;;;;;;;;;;;;;;;;;;5080293;28;803;-70
2022/10/11 05:28:18;;;;;;;;;;;;;;;;;;5080093;28;1968;-70
2022/10/11 05:30:44;;;;;;;;;;;;;;;;;;5080373;28;879;-70
2022/10/11 05:33:09;;;;;;;;;;;;;;;;;;5080260;28;1242;-70
2022/10/11 05:35:34;;;;;;;;;;;;;;;;;;5082826;28;838;-70
2022/10/11 05:37:59;;;;;;;;;;;;;;;;;;5083675;28;981;-70
2022/10/11 05:40:24;;;;;;;;;;;;;;;;;;5083666;28;838;-70
2022/10/11 05:42:49;;;;;;;;;;;;;;;;;;5083636;28;1183;-70
2022/10/11 05:45:15;;;;;;;;;;;;;;;;;;5083105;28;795;-70
2022/10/11 05:47:40;;;;;;;;;;;;;;;;;;5083447;28;1905;-70
2022/10/11 05:50:05;;;;;;;;;;;;;;;;;;5083177;28;961;-70
2022/10/11 05:52:30;;;;;;;;;;;;;;;;;;5083335;28;1211;-70
2022/10/11 05:54:56;;;;;;;;;;;;;;;;;;5082987;28;826;-70
2022/10/11 05:57:21;;;;;;;;;;;;;;;;;;5083551;28;1059;-70
2022/10/11 05:59:46;;;;;;;;;;;;;;;;;;5083402;28;918;-70
2022/10/11 06:02:12;;;;;;;;;;;;;;;;;;5083335;28;1179;-70
2022/10/11 06:04:37;;;;;;;;;;;;;;;;;;5082906;28;791;-70
2022/10/11 06:07:02;;;;;;;;;;;;;;;;;;5083275;28;1898;-70
2022/10/11 06:09:28;;;;;;;;;;;;;;;;;;5083166;28;799;-70
2022/10/11 06:11:53;;;;;;;;;;;;;;;;;;5083186;28;1259;-70
2022/10/11 06:14:18;;;;;;;;;;;;;;;;;;5083040;28;914;-70
2022/10/11 06:16:44;;;;;;;;;;;;;;;;;;5083060;28;826;-70
2022/10/11 06:19:09;;;;;;;;;;;;;;;;;;5082819;28;835;-70
2022/10/11 06:21:34;;;;;;;;;;;;;;;;;;5083019;28;1259;-70
2022/10/11 06:24:00;;;;;;;;;;;;;;;;;;5083017;28;783;-70
2022/10/11 06:26:26;;;;;;;;;;;;;;;;;;5082958;28;807;-70
2022/10/11 06:28:51;;;;;;;;;;;;;;;;;;5082606;28;1886;-70
2022/10/11 06:31:16;;;;;;;;;;;;;;;;;;5080687;28;803;-69
2022/10/11 06:33:41;;;;;;;;;;;;;;;;;;5083185;28;1171;-69
2022/10/11 06:36:09;;;;;;;;;;;;;;;;;;5082573;28;945;-70
2022/10/11 06:38:34;;;;;;;;;;;;;;;;;;5083078;28;918;-70
2022/10/11 06:41:15;;;;;;;;;;;;;;;;;;5082630;28;882;-70
2022/10/11 06:43:40;;;;;;;;;;;;;;;;;;5082730;28;1172;-70
2022/10/11 06:46:05;;;;;;;;;;;;;;;;;;5081144;28;842;-70
2022/10/11 06:48:30;;;;;;;;;;;;;;;;;;5082773;28;1892;-70
2022/10/11 06:50:57;;;;;;;;;;;;;;;;;;5082567;28;862;-70
2022/10/11 06:53:22;;;;;;;;;;;;;;;;;;5104170;22;3909;-76
2022/10/11 06:55:47;;;;;;;;;;;;;;;;;;5102091;28;1110;-76
2022/10/11 06:58:12;;;;;;;;;;;;;;;;;;5102523;28;917;-76
2022/10/11 07:00:37;;;;;;;;;;;;;;;;;;5102704;28;1036;-76
2022/10/11 07:03:03;;;;;;;;;;;;;;;;;;5102548;28;1192;-76
2022/10/11 07:05:30;;;;;;;;;;;;;;;;;;5102579;28;810;-76
2022/10/11 07:07:55;;;;;;;;;;;;;;;;;;5102521;28;1909;-76
2022/10/11 07:10:20;;;;;;;;;;;;;;;;;;5102713;28;791;-76
2022/10/11 07:12:46;;;;;;;;;;;;;;;;;;5102468;28;1171;-76
2022/10/11 07:15:11;;;;;;;;;;;;;;;;;;5102281;28;909;-76
2022/10/11 07:17:36;;;;;;;;;;;;;;;;;;5102727;28;896;-76
2022/10/11 07:20:02;;;;;;;;;;;;;;;;;;5102403;28;921;-76
2022/10/11 07:22:27;;;;;;;;;;;;;;;;;;5102508;28;1231;-76
2022/10/11 07:24:52;;;;;;;;;;;;;;;;;;5102267;28;1000;-76
2022/10/11 07:27:17;;;;;;;;;;;;;;;;;;5102167;28;1905;-76
2022/10/11 07:29:42;;;;;;;;;;;;;;;;;;5102348;28;806;-76
2022/10/11 07:32:08;;;;;;;;;;;;;;;;;;5102067;28;1167;-76
2022/10/11 07:34:33;;;;;;;;;;;;;;;;;;5102258;28;1036;-76
2022/10/11 07:36:58;;;;;;;;;;;;;;;;;;5102309;28;929;-76
2022/10/11 07:39:23;;;;;;;;;;;;;;;;;;5083873;28;818;-76
2022/10/11 07:41:48;;;;;;;;;;;;;;;;;;5102412;28;787;-76
2022/10/11 07:44:13;;;;;;;;;;;;;;;;;;5101988;28;1175;-74
2022/10/11 07:46:39;;;;;;;;;;;;;;;;;;5101896;28;803;-76
2022/10/11 07:49:04;;;;;;;;;;;;;;;;;;5083873;28;1033;-76
2022/10/11 07:51:29;;;;;;;;;;;;;;;;;;5101998;28;913;-76
2022/10/11 07:53:55;;;;;;;;;;;;;;;;;;5101749;28;1250;-76
2022/10/11 07:56:29;;;;;;;;;;;;;;;;;;5101639;28;767;-76
2022/10/11 07:58:56;;;;;;;;;;;;;;;;;;5083254;28;901;-76
2022/10/11 08:01:21;;;;;;;;;;;;;;;;;;5101891;28;793;-76
2022/10/11 08:03:46;;;;;;;;;;;;;;;;;;5101655;28;1136;-76
2022/10/11 08:06:13;;;;;;;;;;;;;;;;;;5101706;28;987;-76
2022/10/11 08:08:38;;;;;;;;;;;;;;;;;;5101835;28;1901;-76
2022/10/11 08:11:03;;;;;;;;;;;;;;;;;;5101759;28;922;-76
2022/10/11 08:13:28;;;;;;;;;;;;;;;;;;5101402;28;1239;-74
2022/10/11 08:15:54;;;;;;;;;;;;;;;;;;5101511;28;929;-74
2022/10/11 08:18:19;;;;;;;;;;;;;;;;;;5101573;28;993;-74
2022/10/11 08:20:45;;;;;;;;;;;;;;;;;;5101662;28;889;-77
2022/10/11 08:23:11;;;;;;;;;;;;;;;;;;5101473;28;1254;-75
2022/10/11 08:25:40;;;;;;;;;;;;;;;;;;5101286;28;877;-76
2022/10/11 08:28:05;;;;;;;;;;;;;;;;;;5101279;28;1910;-76
2022/10/11 08:30:31;;;;;;;;;;;;;;;;;;5101510;28;853;-76
2022/10/11 08:32:56;;;;;;;;;;;;;;;;;;5101749;28;1163;-76
2022/10/11 08:35:22;;;;;;;;;;;;;;;;;;5100980;28;881;-76
2022/10/11 08:37:47;;;;;;;;;;;;;;;;;;5101383;28;845;-75
2022/10/11 08:40:16;;;;;;;;;;;;;;;;;;5101086;28;906;-76
2022/10/11 08:42:44;;;;;;;;;;;;;;;;;;5100702;28;1179;-76
2022/10/11 08:45:19;;;;;;;;;;;;;;;;;;5100111;28;866;-76
2022/10/11 08:47:44;;;;;;;;;;;;;;;;;;5100444;28;1969;-76
2022/10/11 08:50:20;;;;;;;;;;;;;;;;;;5100463;28;791;-76
2022/10/11 08:52:49;;;;;;;;;;;;;;;;;;5100618;28;1190;-76
2022/10/11 08:55:14;;;;;;;;;;;;;;;;;;5100022;28;846;-76
2022/10/11 08:57:42;;;;;;;;;;;;;;;;;;5100529;28;957;-76
2022/10/11 09:00:12;;;;;;;;;;;;;;;;;;5100158;28;1087;-76
2022/10/11 09:02:58;;;;;;;;;;;;;;;;;;5100181;28;1197;-76
2022/10/11 09:05:26;;;;;;;;;;;;;;;;;;5100244;28;810;-75
2022/10/11 09:08:06;;;;;;;;;;;;;;;;;;5100315;28;1893;-76
2022/10/11 09:10:37;;;;;;;;;;;;;;;;;;5102971;28;858;-76
2022/10/11 09:13:08;;;;;;;;;;;;;;;;;;5104234;28;1155;-76
2022/10/11 09:15:40;;;;;;;;;;;;;;;;;;5103626;28;803;-76
2022/10/11 09:18:30;;;;;;;;;;;;;;;;;;5103945;28;823;-76
2022/10/11 09:21:30;;;;;;;;;;;;;;;;;;5103776;28;997;-76
2022/10/11 09:24:04;;;;;;;;;;;;;;;;;;5001520;28;1406;-76
2022/10/11 09:26:32;;;;;;;;;;;;;;;;;;5087601;28;931;-76
2022/10/11 09:28:57;;;;;;;;;;;;;;;;;;5103836;28;1893;-76
2022/10/11 09:31:23;;;;;;;;;;;;;;;;;;5103350;28;858;-76
2022/10/11 09:33:50;;;;;;;;;;;;;;;;;;5103443;28;1247;-76
2022/10/11 09:36:21;;;;;;;;;;;;;;;;;;5103205;28;779;-76
2022/10/11 09:39:01;;;;;;;;;;;;;;;;;;5103895;28;984;-76
2022/10/11 09:41:37;;;;;;;;;;;;;;;;;;5103238;28;822;-76
2022/10/11 09:44:05;;;;;;;;;;;;;;;;;;5103553;28;1187;-76
2022/10/11 09:46:33;;;;;;;;;;;;;;;;;;5102916;28;1013;-76
2022/10/11 09:48:59;;;;;;;;;;;;;;;;;;5103613;28;1953;-76
2022/10/11 09:51:26;;;;;;;;;;;;;;;;;;5103100;28;811;-76
2022/10/11 09:53:59;;;;;;;;;;;;;;;;;;5103241;28;1148;-77
2022/10/11 09:56:25;;;;;;;;;;;;;;;;;;5102977;28;874;-77
2022/10/11 09:59:06;;;;;;;;;;;;;;;;;;5103273;28;763;-77
2022/10/11 10:01:32;;;;;;;;;;;;;;;;;;5102998;28;854;-77
2022/10/11 10:04:11;;;;;;;;;;;;;;;;;;5103405;28;1215;-77
2022/10/11 10:06:36;;;;;;;;;;;;;;;;;;5102701;28;866;-76
2022/10/11 10:09:18;;;;;;;;;;;;;;;;;;5103184;28;1897;-76
2022/10/11 10:11:43;;;;;;;;;;;;;;;;;;5102859;28;797;-76
2022/10/11 10:14:17;;;;;;;;;;;;;;;;;;5103059;28;1140;-76
2022/10/11 10:16:42;;;;;;;;;;;;;;;;;;5102552;28;1059;-76
2022/10/11 10:19:16;;;;;;;;;;;;;;;;;;5103507;28;898;-77
2022/10/11 10:21:46;;;;;;;;;;;;;;;;;;5102484;28;970;-77
2022/10/11 10:24:23;;;;;;;;;;;;;;;;;;5102764;28;1164;-76
2022/10/11 10:27:04;;;;;;;;;;;;;;;;;;5102382;28;1893;-77
2022/10/11 10:29:30;;;;;;;;;;;;;;;;;;5102887;28;870;-76
2022/10/11 10:31:56;;;;;;;;;;;;;;;;;;5102546;28;799;-77
2022/10/11 10:34:27;;;;;;;;;;;;;;;;;;5102529;28;1155;-77
2022/10/11 10:36:54;;;;;;;;;;;;;;;;;;5084116;28;1108;-77
2022/10/11 10:39:22;;;;;;;;;;;;;;;;;;5102516;28;836;-77
2022/10/11 10:41:48;;;;;;;;;;;;;;;;;;5102170;28;810;-77
2022/10/11 10:44:14;;;;;;;;;;;;;;;;;;5102517;28;1227;-76
2022/10/11 10:46:47;;;;;;;;;;;;;;;;;;5102286;28;807;-77
2022/10/11 10:49:15;;;;;;;;;;;;;;;;;;5102536;28;941;-77
2022/10/11 10:52:04;;;;;;;;;;;;;;;;;;5102362;28;843;-77
2022/10/11 10:54:43;;;;;;;;;;;;;;;;;;5101963;28;2004;-76
2022/10/11 10:57:22;;;;;;;;;;;;;;;;;;5102429;28;1000;-76
2022/10/11 10:59:59;;;;;;;;;;;;;;;;;;5102451;28;1012;-76
2022/10/11 11:02:33;;;;;;;;;;;;;;;;;;5100632;28;1166;-76
2022/10/11 11:05:05;;;;;;;;;;;;;;;;;;5101380;28;890;-76
2022/10/11 11:07:38;;;;;;;;;;;;;;;;;;5102294;28;1889;-76
2022/10/11 11:10:36;;;;;;;;;;;;;;;;;;5102333;28;810;-76
2022/10/11 11:13:01;;;;;;;;;;;;;;;;;;5046052;28;1179;-76
2022/10/11 11:15:36;;;;;;;;;;;;;;;;;;5101696;28;854;-77
2022/10/11 11:18:17;;;;;;;;;;;;;;;;;;5102172;28;876;-77
2022/10/11 11:20:50;;;;;;;;;;;;;;;;;;5101869;28;1008;-77
2022/10/11 11:23:42;;;;;;;;;;;;;;;;;;5101637;28;1333;-77
2022/10/11 11:26:14;;;;;;;;;;;;;;;;;;5096569;28;1409;-77
2022/10/11 11:28:48;;;;;;;;;;;;;;;;;;5101707;28;1897;-77
2022/10/11 11:31:14;;;;;;;;;;;;;;;;;;5101696;28;823;-76
2022/10/11 11:33:58;;;;;;;;;;;;;;;;;;5100879;28;1254;-76
2022/10/11 11:36:26;;;;;;;;;;;;;;;;;;5101445;28;858;-76
2022/10/11 11:38:58;;;;;;;;;;;;;;;;;;5083322;28;1575;-77
2022/10/11 11:41:50;;;;;;;;;;;;;;;;;;5083428;28;996;-77
2022/10/11 11:44:24;;;;;;;;;;;;;;;;;;5096374;28;1387;-77
2022/10/11 11:46:57;;;;;;;;;;;;;;;;;;5101484;28;1898;-77
2022/10/11 11:49:43;;;;;;;;;;;;;;;;;;5101314;28;949;-77
2022/10/11 11:52:16;;;;;;;;;;;;;;;;;;5101239;28;1154;-77
2022/10/11 11:54:54;;;;;;;;;;;;;;;;;;5100973;28;917;-77
2022/10/11 11:57:22;;;;;;;;;;;;;;;;;;5101336;28;827;-76
2022/10/11 11:59:54;;;;;;;;;;;;;;;;;;5101208;28;909;-76
2022/10/11 12:02:20;;;;;;;;;;;;;;;;;;5101080;28;1258;-76
2022/10/11 12:04:47;;;;;;;;;;;;;;;;;;5100633;28;798;-76
2022/10/11 12:07:30;;;;;;;;;;;;;;;;;;5101471;28;1970;-76
2022/10/11 12:10:14;;;;;;;;;;;;;;;;;;5101308;28;877;-76
2022/10/11 12:12:40;;;;;;;;;;;;;;;;;;5100907;28;1180;-76
2022/10/11 12:15:08;;;;;;;;;;;;;;;;;;5100483;28;1008;-76
2022/10/11 12:17:33;;;;;;;;;;;;;;;;;;5101276;28;807;-76
2022/10/11 12:20:11;;;;;;;;;;;;;;;;;;5100900;28;922;-76
2022/10/11 12:22:38;;;;;;;;;;;;;;;;;;5100835;28;1263;-77
2022/10/11 12:25:09;;;;;;;;;;;;;;;;;;5100602;28;1055;-76
2022/10/11 12:27:45;;;;;;;;;;;;;;;;;;5100817;28;1893;-76
2022/10/11 12:30:29;;;;;;;;;;;;;;;;;;5082644;28;913;-76
2022/10/11 12:33:02;;;;;;;;;;;;;;;;;;5100667;28;1266;-76
2022/10/11 12:35:31;;;;;;;;;;;;;;;;;;5100797;28;862;-77
2022/10/11 12:38:15;;;;;;;;;;;;;;;;;;5101493;28;753;-76
2022/10/11 12:40:41;;;;;;;;;;;;;;;;;;5100819;28;941;-76
2022/10/11 12:43:15;;;;;;;;;;;;;;;;;;5100653;28;1239;-76
2022/10/11 12:45:42;;;;;;;;;;;;;;;;;;5103167;28;889;-76
2022/10/11 12:48:18;;;;;;;;;;;;;;;;;;5104514;28;1894;-76
2022/10/11 12:50:43;;;;;;;;;;;;;;;;;;5104190;28;880;-76
2022/10/11 12:53:08;;;;;;;;;;;;;;;;;;5117090;22;2568;-64
2022/10/11 12:55:53;;;;;;;;;;;;;;;;;;5103589;28;965;-64
2022/10/11 12:58:30;;;;;;;;;;;;;;;;;;5103810;28;984;-64
2022/10/11 13:00:55;;;;;;;;;;;;;;;;;;5104567;28;849;-65
2022/10/11 13:03:24;;;;;;;;;;;;;;;;;;5104719;28;1176;-65
2022/10/11 13:05:49;;;;;;;;;;;;;;;;;;5104380;28;783;-66
2022/10/11 13:08:20;;;;;;;;;;;;;;;;;;5104452;28;1972;-65
2022/10/11 13:10:46;;;;;;;;;;;;;;;;;;5104975;28;997;-66
2022/10/11 13:13:22;;;;;;;;;;;;;;;;;;5104217;28;1175;-66
2022/10/11 13:15:48;;;;;;;;;;;;;;;;;;5085899;28;1597;-66
2022/10/11 13:18:14;;;;;;;;;;;;;;;;;;5104697;28;880;-66
2022/10/11 13:20:39;;;;;;;;;;;;;;;;;;5104377;28;1051;-65
2022/10/11 13:23:17;;;;;;;;;;;;;;;;;;5104388;28;1263;-65
2022/10/11 13:25:42;;;;;;;;;;;;;;;;;;5104069;28;786;-66
2022/10/11 13:28:08;;;;;;;;;;;;;;;;;;5104307;28;1955;-65
2022/10/11 13:30:34;;;;;;;;;;;;;;;;;;5104162;28;815;-65
2022/10/11 13:33:00;;;;;;;;;;;;;;;;;;5104098;28;1241;-65
2022/10/11 13:35:29;;;;;;;;;;;;;;;;;;5104039;28;803;-65
2022/10/11 13:37:55;;;;;;;;;;;;;;;;;;5104007;28;814;-66
2022/10/11 13:40:21;;;;;;;;;;;;;;;;;;5104163;28;928;-65
2022/10/11 13:42:47;;;;;;;;;;;;;;;;;;5103672;28;1159;-65
2022/10/11 13:45:13;;;;;;;;;;;;;;;;;;5103808;28;834;-65
2022/10/11 13:47:39;;;;;;;;;;;;;;;;;;5103912;28;1901;-66
2022/10/11 13:50:13;;;;;;;;;;;;;;;;;;5104357;28;890;-66
2022/10/11 13:52:51;;;;;;;;;;;;;;;;;;5103713;28;1213;-65
2022/10/11 13:55:35;;;;;;;;;;;;;;;;;;5103009;28;791;-66
2022/10/11 13:58:09;;;;;;;;;;;;;;;;;;5103661;28;853;-65
2022/10/11 14:00:38;;;;;;;;;;;;;;;;;;5103865;28;949;-65
2022/10/11 14:03:12;;;;;;;;;;;;;;;;;;5103558;28;1172;-65
2022/10/11 14:05:40;;;;;;;;;;;;;;;;;;5103786;28;802;-65
2022/10/11 14:08:06;;;;;;;;;;;;;;;;;;5103535;28;1901;-65
2022/10/11 14:10:32;;;;;;;;;;;;;;;;;;5103728;28;866;-65
2022/10/11 14:13:21;;;;;;;;;;;;;;;;;;5103298;28;1227;-66
2022/10/11 14:15:56;;;;;;;;;;;;;;;;;;5103408;28;924;-65
2022/10/11 14:18:33;;;;;;;;;;;;;;;;;;5103315;28;1001;-66
2022/10/11 14:21:15;;;;;;;;;;;;;;;;;;5103516;28;853;-65
2022/10/11 14:23:40;;;;;;;;;;;;;;;;;;5103155;28;1292;-66
2022/10/11 14:26:07;;;;;;;;;;;;;;;;;;5103016;28;906;-65
2022/10/11 14:28:32;;;;;;;;;;;;;;;;;;5103114;28;1905;-65
2022/10/11 14:30:58;;;;;;;;;;;;;;;;;;5103649;28;822;-65
2022/10/11 14:33:23;;;;;;;;;;;;;;;;;;5103036;28;1151;-65
2022/10/11 14:35:48;;;;;;;;;;;;;;;;;;5102985;28;861;-65
2022/10/11 14:38:13;;;;;;;;;;;;;;;;;;5103174;28;862;-65
2022/10/11 14:40:38;;;;;;;;;;;;;;;;;;5103012;28;1020;-65
2022/10/11 14:43:04;;;;;;;;;;;;;;;;;;5102728;28;1234;-66
2022/10/11 14:45:29;;;;;;;;;;;;;;;;;;5102730;28;940;-66
2022/10/11 14:47:54;;;;;;;;;;;;;;;;;;5103117;28;1965;-65
2022/10/11 14:50:38;;;;;;;;;;;;;;;;;;5102996;28;802;-65
2022/10/11 14:53:04;;;;;;;;;;;;;;;;;;5102533;28;1181;-65
2022/10/11 14:55:30;;;;;;;;;;;;;;;;;;5102621;28;901;-65
2022/10/11 14:57:55;;;;;;;;;;;;;;;;;;5102775;28;830;-65
2022/10/11 15:00:25;;;;;;;;;;;;;;;;;;5103087;28;802;-65
2022/10/11 15:02:51;;;;;;;;;;;;;;;;;;5103107;28;1270;-65
2022/10/11 15:05:17;;;;;;;;;;;;;;;;;;5082923;28;1028;-65
2022/10/11 15:07:42;;;;;;;;;;;;;;;;;;5081354;28;1965;-65
2022/10/11 15:10:19;;;;;;;;;;;;;;;;;;5082194;28;865;-65
2022/10/11 15:12:44;;;;;;;;;;;;;;;;;;5082684;28;1200;-66
2022/10/11 15:15:10;;;;;;;;;;;;;;;;;;5081873;28;830;-65
2022/10/11 15:17:35;;;;;;;;;;;;;;;;;;5082439;28;968;-65
2022/10/11 15:20:00;;;;;;;;;;;;;;;;;;5082131;28;1045;-66
2022/10/11 15:22:25;;;;;;;;;;;;;;;;;;5082194;28;1096;-65
2022/10/11 15:24:50;;;;;;;;;;;;;;;;;;5081436;28;1160;-65
2022/10/11 15:27:16;;;;;;;;;;;;;;;;;;5082117;28;1948;-65
2022/10/11 15:29:41;;;;;;;;;;;;;;;;;;5082031;28;798;-65
2022/10/11 15:32:06;;;;;;;;;;;;;;;;;;5082120;28;874;-65
2022/10/11 15:34:31;;;;;;;;;;;;;;;;;;5081613;28;1100;-65
2022/10/11 15:36:56;;;;;;;;;;;;;;;;;;5081953;28;850;-65
2022/10/11 15:39:26;;;;;;;;;;;;;;;;;;5081665;28;978;-65
2022/10/11 15:41:52;;;;;;;;;;;;;;;;;;5081894;28;1860;-65
2022/10/11 15:44:17;;;;;;;;;;;;;;;;;;5081652;28;1196;-65
2022/10/11 15:46:42;;;;;;;;;;;;;;;;;;5081712;28;953;-65
2022/10/11 15:49:11;;;;;;;;;;;;;;;;;;5081804;28;1898;-65
2022/10/11 15:51:36;;;;;;;;;;;;;;;;;;5082027;28;961;-65
2022/10/11 15:54:01;;;;;;;;;;;;;;;;;;5081447;28;1191;-65
2022/10/11 15:56:26;;;;;;;;;;;;;;;;;;5081479;28;1044;-65
2022/10/11 15:58:52;;;;;;;;;;;;;;;;;;5081984;28;795;-65
2022/10/11 16:01:18;;;;;;;;;;;;;;;;;;5081666;28;1044;-65
2022/10/11 16:03:44;;;;;;;;;;;;;;;;;;5081597;28;1195;-65
2022/10/11 16:06:09;;;;;;;;;;;;;;;;;;5081264;28;826;-65
2022/10/11 16:08:34;;;;;;;;;;;;;;;;;;5081269;28;1960;-65
2022/10/11 16:10:59;;;;;;;;;;;;;;;;;;5084488;28;851;-65
2022/10/11 16:13:25;;;;;;;;;;;;;;;;;;5089815;28;1203;-65
2022/10/11 16:15:50;;;;;;;;;;;;;;;;;;5080919;28;1356;-65
2022/10/11 16:18:16;;;;;;;;;;;;;;;;;;5081084;28;771;-65
2022/10/11 16:20:42;;;;;;;;;;;;;;;;;;5081340;28;890;-65
2022/10/11 16:23:07;;;;;;;;;;;;;;;;;;5081342;28;1174;-65
2022/10/11 16:25:33;;;;;;;;;;;;;;;;;;5081139;28;828;-65
2022/10/11 16:27:58;;;;;;;;;;;;;;;;;;5081357;28;1949;-65
2022/10/11 16:30:23;;;;;;;;;;;;;;;;;;5081180;28;865;-65
2022/10/11 16:32:49;;;;;;;;;;;;;;;;;;5081364;28;1192;-65
2022/10/11 16:35:15;;;;;;;;;;;;;;;;;;5080900;28;818;-65
2022/10/11 16:37:40;;;;;;;;;;;;;;;;;;5079818;28;1289;-65
2022/10/11 16:40:06;;;;;;;;;;;;;;;;;;5081769;28;743;-65
2022/10/11 16:42:32;;;;;;;;;;;;;;;;;;5081358;28;893;-65
2022/10/11 16:44:57;;;;;;;;;;;;;;;;;;5080745;28;787;-65
2022/10/11 16:47:22;;;;;;;;;;;;;;;;;;5081051;28;1894;-65
2022/10/11 16:49:48;;;;;;;;;;;;;;;;;;5081051;28;893;-65
2022/10/11 16:52:13;;;;;;;;;;;;;;;;;;5080705;28;854;-65
2022/10/11 16:54:43;;;;;;;;;;;;;;;;;;5080660;28;1243;-65
2022/10/11 16:57:09;;;;;;;;;;;;;;;;;;5080820;28;819;-65
2022/10/11 16:59:34;;;;;;;;;;;;;;;;;;5081023;28;731;-65
2022/10/11 17:02:00;;;;;;;;;;;;;;;;;;5080705;28;846;-65
2022/10/11 17:04:25;;;;;;;;;;;;;;;;;;5080528;28;1250;-65
2022/10/11 17:06:50;;;;;;;;;;;;;;;;;;5080512;28;988;-65
2022/10/11 17:09:16;;;;;;;;;;;;;;;;;;5080811;28;1961;-65
2022/10/11 17:11:41;;;;;;;;;;;;;;;;;;5080475;28;893;-65
2022/10/11 17:14:07;;;;;;;;;;;;;;;;;;5080575;28;1258;-65
2022/10/11 17:16:32;;;;;;;;;;;;;;;;;;5080297;28;854;-65
2022/10/11 17:18:58;;;;;;;;;;;;;;;;;;5080882;28;862;-65
2022/10/11 17:21:23;;;;;;;;;;;;;;;;;;5080351;28;969;-65